createdAt,value
2019-01-16T00:00:09.907Z,20.97
2019-01-16T00:05:18.651Z,27.67
2019-01-16T00:10:35.514Z,13.63
2019-01-16T00:15:43.340Z,94.23
2019-01-16T00:20:59.943Z,7.57
2019-01-16T00:26:07.796Z,109.87
2019-01-16T00:31:18.866Z,35.95
2019-01-16T00:36:43.198Z,1.67
2019-01-16T00:42:09.510Z,1.20
2019-01-16T00:47:26.135Z,3.13
2019-01-16T00:52:33.810Z,1.20
2019-01-16T00:57:44.500Z,1.47
2019-01-16T01:02:50.534Z,1.60
2019-01-16T01:08:13.301Z,1.50
2019-01-16T01:13:36.958Z,1.22
2019-01-16T01:18:47.475Z,1.60
2019-01-16T01:24:13.241Z,2.47
2019-01-16T01:29:27.147Z,3.08
2019-01-16T01:34:43.709Z,1.90
2019-01-16T01:39:57.618Z,1.53
2019-01-16T01:45:05.535Z,2.13
2019-01-16T01:50:31.646Z,1.63
2019-01-16T01:55:51.243Z,1.50
2019-01-16T02:01:04.738Z,3.30
2019-01-16T02:06:28.338Z,0.80
2019-01-16T02:11:38.926Z,2.00
2019-01-16T02:16:49.680Z,2.20
2019-01-16T02:21:57.602Z,2.60
2019-01-16T02:27:05.208Z,1.63
2019-01-16T02:32:29.424Z,3.25
2019-01-16T02:37:39.795Z,2.67
2019-01-16T02:42:47.525Z,2.07
2019-01-16T02:48:02.127Z,2.43
2019-01-16T02:53:09.700Z,2.50
2019-01-16T02:58:20.535Z,1.92
2019-01-16T03:03:32.179Z,4.30
2019-01-16T03:08:39.683Z,3.77
2019-01-16T03:13:50.381Z,3.20
2019-01-16T03:19:14.264Z,1.50
2019-01-16T03:24:24.637Z,2.90
2019-01-16T03:29:40.961Z,3.87
2019-01-16T03:34:48.453Z,1.50
2019-01-16T03:39:58.824Z,3.53
2019-01-16T03:45:12.796Z,4.67
2019-01-16T03:50:26.361Z,1.70
2019-01-16T03:55:34.199Z,3.40
2019-01-16T04:00:42.020Z,4.63
2019-01-16T04:05:55.829Z,4.33
2019-01-16T04:11:06.311Z,3.10
2019-01-16T04:16:16.970Z,5.35
2019-01-16T04:21:30.440Z,3.87
2019-01-16T04:26:43.790Z,7.83
2019-01-16T04:31:57.732Z,5.27
2019-01-16T04:37:11.378Z,4.30
2019-01-16T04:42:25.187Z,2.60
2019-01-16T04:47:39.380Z,3.90
2019-01-16T04:52:56.265Z,6.63
2019-01-16T04:58:10.063Z,4.67
2019-01-16T05:03:34.008Z,3.50
2019-01-16T05:08:47.293Z,5.20
2019-01-16T05:13:55.179Z,4.00
2019-01-16T05:19:09.207Z,4.53
2019-01-16T05:24:15.623Z,7.97
2019-01-16T05:29:40.231Z,8.13
2019-01-16T05:34:57.404Z,8.53
2019-01-16T05:40:06.117Z,13.13
2019-01-16T05:45:14.098Z,12.13
2019-01-16T05:50:36.651Z,10.90
2019-01-16T05:55:44.274Z,15.60
2019-01-16T06:01:02.469Z,16.13
2019-01-16T06:06:17.540Z,12.47
2019-01-16T06:11:33.753Z,11.78
2019-01-16T06:16:57.525Z,9.07
2019-01-16T06:22:05.234Z,15.23
2019-01-16T06:27:19.428Z,16.77
2019-01-16T06:32:43.565Z,17.23
2019-01-16T06:38:00.147Z,24.33
2019-01-16T06:43:07.960Z,24.70
2019-01-16T06:48:15.653Z,33.63
2019-01-16T06:53:39.242Z,25.95
2019-01-16T06:58:46.767Z,28.90
2019-01-16T07:04:11.170Z,25.63
2019-01-16T07:09:27.777Z,22.73
2019-01-16T07:14:41.733Z,32.35
2019-01-16T07:19:49.627Z,29.40
2019-01-16T07:25:00.436Z,31.68
2019-01-16T07:30:17.420Z,41.20
2019-01-16T07:35:41.274Z,41.83
2019-01-16T07:40:48.996Z,53.27
2019-01-16T07:45:59.786Z,45.13
2019-01-16T07:51:10.262Z,40.77
2019-01-16T07:56:18.175Z,42.07
2019-01-16T08:01:28.649Z,42.47
2019-01-16T08:06:42.287Z,42.27
2019-01-16T08:12:06.627Z,57.13
2019-01-16T08:17:20.587Z,58.63
2019-01-16T08:22:43.659Z,65.93
2019-01-16T08:27:54.217Z,52.40
2019-01-16T08:33:18.003Z,72.80
2019-01-16T08:38:37.588Z,79.80
2019-01-16T08:43:45.324Z,76.37
2019-01-16T08:49:02.240Z,64.00
2019-01-16T08:54:26.040Z,83.60
2019-01-16T08:59:36.870Z,99.40
2019-01-16T09:05:00.409Z,72.43
2019-01-16T09:10:13.820Z,63.50
2019-01-16T09:15:21.658Z,79.77
2019-01-16T09:20:40.070Z,67.17
2019-01-16T09:25:50.411Z,72.17
2019-01-16T09:30:58.349Z,51.67
2019-01-16T09:36:22.551Z,65.13
2019-01-16T09:41:36.410Z,43.33
2019-01-16T09:46:55.778Z,51.30
2019-01-16T09:52:03.719Z,42.87
2019-01-16T09:57:23.693Z,37.07
2019-01-16T10:02:34.598Z,43.33
2019-01-16T10:07:54.657Z,45.30
2019-01-16T10:13:02.505Z,46.70
2019-01-16T10:18:10.118Z,36.13
2019-01-16T10:23:34.323Z,37.80
2019-01-16T10:28:42.025Z,39.20
2019-01-16T10:33:52.645Z,38.37
2019-01-16T10:39:16.517Z,45.20
2019-01-16T10:44:29.845Z,29.42
2019-01-16T10:49:37.463Z,16.97
2019-01-16T10:54:48.348Z,18.00
2019-01-16T10:59:55.964Z,20.67
2019-01-16T11:05:06.239Z,33.20
2019-01-16T11:10:33.243Z,19.92
2019-01-16T11:15:41.122Z,40.37
2019-01-16T11:21:10.932Z,34.23
2019-01-16T11:26:21.823Z,34.27
2019-01-16T11:31:29.456Z,21.57
2019-01-16T11:36:59.861Z,12.37
2019-01-16T11:42:11.047Z,13.27
2019-01-16T11:47:19.240Z,10.40
2019-01-16T11:52:43.692Z,25.90
2019-01-16T11:57:53.995Z,43.93
2019-01-16T12:03:01.802Z,13.68
2019-01-16T12:08:13.212Z,11.00
2019-01-16T12:13:27.097Z,9.20
2019-01-16T12:18:51.217Z,11.90
2019-01-16T12:23:58.697Z,10.43
2019-01-16T12:29:19.579Z,12.07
2019-01-16T12:34:43.896Z,10.83
2019-01-16T12:40:07.899Z,13.13
2019-01-16T12:45:21.090Z,22.00
2019-01-16T12:50:45.666Z,16.03
2019-01-16T12:56:11.892Z,22.80
2019-01-16T13:01:35.698Z,9.78
2019-01-16T13:06:43.683Z,16.50
2019-01-16T13:12:07.399Z,16.93
2019-01-16T13:17:21.297Z,21.30
2019-01-16T13:22:34.594Z,18.93
2019-01-16T13:27:45.071Z,23.83
2019-01-16T13:33:04.881Z,13.40
2019-01-16T13:38:12.601Z,15.50
2019-01-16T13:43:29.320Z,19.60
2019-01-16T13:48:45.833Z,35.87
2019-01-16T13:54:09.970Z,26.70
2019-01-16T13:59:27.333Z,36.23
2019-01-16T14:04:34.692Z,32.30
2019-01-16T14:09:58.838Z,26.53
2019-01-16T14:15:18.963Z,28.93
2019-01-16T14:20:38.540Z,27.97
2019-01-16T14:25:58.540Z,26.77
2019-01-16T14:31:21.103Z,31.47
2019-01-16T14:36:31.921Z,33.23
2019-01-16T14:41:37.828Z,22.67
2019-01-16T14:46:48.164Z,35.23
2019-01-16T14:51:59.602Z,38.67
2019-01-16T14:57:05.763Z,25.17
2019-01-16T15:02:22.716Z,31.27
2019-01-16T15:07:30.856Z,29.23
2019-01-16T15:12:57.067Z,50.50
2019-01-16T15:18:20.943Z,65.87
2019-01-16T15:23:31.465Z,39.20
2019-01-16T15:28:42.132Z,35.20
2019-01-16T15:33:55.966Z,36.73
2019-01-16T15:39:09.401Z,35.20
2019-01-16T15:44:20.095Z,39.90
2019-01-16T15:49:40.071Z,54.73
2019-01-16T15:55:00.026Z,51.63
2019-01-16T16:00:15.421Z,48.97
2019-01-16T16:05:24.250Z,74.55
2019-01-16T16:10:39.252Z,28.83
2019-01-16T16:15:50.269Z,38.53
2019-01-16T16:20:56.428Z,29.00
2019-01-16T16:26:04.424Z,45.40
2019-01-16T16:31:15.452Z,31.57
2019-01-16T16:36:35.629Z,47.07
2019-01-16T16:41:43.426Z,34.97
2019-01-16T16:46:51.154Z,55.33
2019-01-16T16:51:58.753Z,37.83
2019-01-16T16:57:18.556Z,29.30
2019-01-16T17:02:29.191Z,28.70
2019-01-16T17:07:42.797Z,31.60
2019-01-16T17:12:56.073Z,34.20
2019-01-16T17:18:15.427Z,31.73
2019-01-16T17:23:34.955Z,30.08
2019-01-16T17:28:57.338Z,29.77
2019-01-16T17:34:14.790Z,42.57
2019-01-16T17:39:36.952Z,37.53
2019-01-16T17:45:00.907Z,28.03
2019-01-16T17:50:11.540Z,30.13
2019-01-16T17:55:35.086Z,39.67
2019-01-16T18:00:42.624Z,67.13
2019-01-16T18:05:56.258Z,35.10
2019-01-16T18:11:10.234Z,141.37
2019-01-16T18:16:24.006Z,77.73
2019-01-16T18:21:31.515Z,49.23
2019-01-16T18:26:44.970Z,45.10
2019-01-16T18:32:03.026Z,38.80
2019-01-16T18:37:23.245Z,39.53
2019-01-16T18:42:49.354Z,38.77
2019-01-16T18:48:00.171Z,34.70
2019-01-16T18:53:13.657Z,33.90
2019-01-16T18:58:23.994Z,31.97
2019-01-16T19:03:40.831Z,37.87
2019-01-16T19:08:49.773Z,54.80
2019-01-16T19:14:00.762Z,32.83
2019-01-16T19:19:12.750Z,28.52
2019-01-16T19:24:20.464Z,32.48
2019-01-16T19:29:30.796Z,59.77
2019-01-16T19:34:41.339Z,31.17
2019-01-16T19:39:57.986Z,29.63
2019-01-16T19:45:14.642Z,54.30
2019-01-16T19:50:34.051Z,41.97
2019-01-16T19:56:00.138Z,25.97
2019-01-16T20:01:10.882Z,28.57
2019-01-16T20:06:30.451Z,24.07
2019-01-16T20:11:47.302Z,22.90
2019-01-16T20:17:00.603Z,21.80
2019-01-16T20:22:09.424Z,20.13
2019-01-16T20:27:23.121Z,18.33
2019-01-16T20:32:36.698Z,19.70
2019-01-16T20:37:42.611Z,17.63
2019-01-16T20:43:08.415Z,16.43
2019-01-16T20:48:28.388Z,18.92
2019-01-16T20:53:36.023Z,16.77
2019-01-16T20:58:52.189Z,15.53
2019-01-16T21:04:02.503Z,16.47
2019-01-16T21:09:10.005Z,16.63
2019-01-16T21:14:17.754Z,21.50
2019-01-16T21:19:37.118Z,13.78
2019-01-16T21:24:44.617Z,24.70
2019-01-16T21:29:52.130Z,15.27
2019-01-16T21:35:15.381Z,15.73
2019-01-16T21:40:23.296Z,12.40
2019-01-16T21:45:31.278Z,12.50
2019-01-16T21:50:45.228Z,17.00
2019-01-16T21:56:08.991Z,12.57
2019-01-16T22:01:16.842Z,16.02
2019-01-16T22:06:38.078Z,104.10
2019-01-16T22:12:02.250Z,11.30
2019-01-16T22:17:18.980Z,13.07
2019-01-16T22:22:29.234Z,9.63
2019-01-16T22:27:42.907Z,12.67
2019-01-16T22:32:53.366Z,12.50
2019-01-16T22:38:01.107Z,10.17
2019-01-16T22:43:24.813Z,17.33
2019-01-16T22:48:32.497Z,10.53
2019-01-16T22:53:55.282Z,13.85
2019-01-16T22:59:13.742Z,11.37
2019-01-16T23:04:24.652Z,13.03
2019-01-16T23:09:32.770Z,6.50
2019-01-16T23:14:47.433Z,10.78
2019-01-16T23:19:58.336Z,7.23
2019-01-16T23:25:15.729Z,7.17
2019-01-16T23:30:41.621Z,7.50
2019-01-16T23:35:49.151Z,4.77
2019-01-16T23:41:05.736Z,7.17
2019-01-16T23:46:30.222Z,7.77
2019-01-16T23:51:36.164Z,6.53
2019-01-16T23:56:49.964Z,7.63
